sensor_id;sensor_type;location;lat;lon;timestamp;pressure;altitude;pressure_sealevel;temperature;humidity
15604;BME280;7902;49.042;9.092;2023-07-24T00:01:23;98326.63;;;24.15;53.62
15604;BME280;7902;49.042;9.092;2023-07-24T00:03:49;98338.38;;;24.14;54.01
15604;BME280;7902;49.042;9.092;2023-07-24T00:06:15;98349.38;;;24.05;54.23
15604;BME280;7902;49.042;9.092;2023-07-24T00:08:41;98346.53;;;23.94;54.43
15604;BME280;7902;49.042;9.092;2023-07-24T00:11:07;98347.97;;;23.96;53.89
15604;BME280;7902;49.042;9.092;2023-07-24T00:13:33;98353.94;;;23.98;54.50
15604;BME280;7902;49.042;9.092;2023-07-24T00:15:59;98329.22;;;23.90;54.61
15604;BME280;7902;49.042;9.092;2023-07-24T00:18:25;98323.41;;;23.99;53.74
15604;BME280;7902;49.042;9.092;2023-07-24T00:20:51;98324.69;;;23.90;53.71
15604;BME280;7902;49.042;9.092;2023-07-24T00:23:17;98329.22;;;23.90;53.92
15604;BME280;7902;49.042;9.092;2023-07-24T00:25:43;98320.56;;;23.88;54.12
15604;BME280;7902;49.042;9.092;2023-07-24T00:28:09;98318.88;;;23.93;53.92
15604;BME280;7902;49.042;9.092;2023-07-24T00:30:35;98311.53;;;23.82;55.27
15604;BME280;7902;49.042;9.092;2023-07-24T00:33:00;98315.19;;;23.88;54.04
15604;BME280;7902;49.042;9.092;2023-07-24T00:35:26;98323.47;;;23.86;54.63
15604;BME280;7902;49.042;9.092;2023-07-24T00:37:52;98315.84;;;23.83;54.72
15604;BME280;7902;49.042;9.092;2023-07-24T00:40:18;98312.34;;;23.83;55.03
15604;BME280;7902;49.042;9.092;2023-07-24T00:42:48;98301.03;;;23.81;55.00
15604;BME280;7902;49.042;9.092;2023-07-24T00:45:14;98297.53;;;23.80;55.15
15604;BME280;7902;49.042;9.092;2023-07-24T00:47:41;98311.78;;;23.74;55.47
15604;BME280;7902;49.042;9.092;2023-07-24T00:50:08;98298.38;;;23.74;55.43
15604;BME280;7902;49.042;9.092;2023-07-24T00:52:35;98298.34;;;23.81;55.23
15604;BME280;7902;49.042;9.092;2023-07-24T00:55:01;98310.34;;;23.72;55.55
15604;BME280;7902;49.042;9.092;2023-07-24T00:57:27;98297.38;;;23.69;54.90
15604;BME280;7902;49.042;9.092;2023-07-24T00:59:54;98297.16;;;23.70;55.23
15604;BME280;7902;49.042;9.092;2023-07-24T01:02:20;98285.13;;;23.86;54.20
15604;BME280;7902;49.042;9.092;2023-07-24T01:04:46;98292.53;;;23.90;53.96
15604;BME280;7902;49.042;9.092;2023-07-24T01:07:12;98286.78;;;23.80;54.68
15604;BME280;7902;49.042;9.092;2023-07-24T01:09:38;98279.94;;;23.91;53.51
15604;BME280;7902;49.042;9.092;2023-07-24T01:12:20;98280.81;;;23.78;54.40
15604;BME280;7902;49.042;9.092;2023-07-24T01:15:16;98270.97;;;23.72;54.35
15604;BME280;7902;49.042;9.092;2023-07-24T01:17:51;98265.63;;;23.66;54.60
15604;BME280;7902;49.042;9.092;2023-07-24T01:20:21;98267.72;;;23.64;54.67
15604;BME280;7902;49.042;9.092;2023-07-24T01:23:01;98262.97;;;23.66;55.14
15604;BME280;7902;49.042;9.092;2023-07-24T01:25:34;98265.84;;;23.64;54.88
15604;BME280;7902;49.042;9.092;2023-07-24T01:28:01;98259.28;;;23.60;55.63
15604;BME280;7902;49.042;9.092;2023-07-24T01:30:27;98248.56;;;23.60;55.36
15604;BME280;7902;49.042;9.092;2023-07-24T01:32:53;98257.63;;;23.59;55.82
15604;BME280;7902;49.042;9.092;2023-07-24T01:35:19;98253.50;;;23.63;55.17
15604;BME280;7902;49.042;9.092;2023-07-24T01:37:46;98253.53;;;23.56;55.25
15604;BME280;7902;49.042;9.092;2023-07-24T01:40:12;98253.91;;;23.60;55.44
15604;BME280;7902;49.042;9.092;2023-07-24T01:42:39;98249.25;;;23.49;55.50
15604;BME280;7902;49.042;9.092;2023-07-24T01:45:05;98252.56;;;23.44;55.81
15604;BME280;7902;49.042;9.092;2023-07-24T01:47:32;98251.50;;;23.52;55.58
15604;BME280;7902;49.042;9.092;2023-07-24T01:49:57;98257.28;;;23.42;55.93
15604;BME280;7902;49.042;9.092;2023-07-24T01:52:23;98254.41;;;23.37;56.26
15604;BME280;7902;49.042;9.092;2023-07-24T01:54:49;98250.69;;;23.45;55.74
15604;BME280;7902;49.042;9.092;2023-07-24T01:57:15;98250.66;;;23.51;55.63
15604;BME280;7902;49.042;9.092;2023-07-24T01:59:41;98257.28;;;23.36;55.63
15604;BME280;7902;49.042;9.092;2023-07-24T02:02:07;98256.28;;;23.37;55.90
15604;BME280;7902;49.042;9.092;2023-07-24T02:04:33;98252.97;;;23.48;55.55
15604;BME280;7902;49.042;9.092;2023-07-24T02:06:59;98261.81;;;23.42;55.62
15604;BME280;7902;49.042;9.092;2023-07-24T02:09:25;98262.66;;;23.49;55.42
15604;BME280;7902;49.042;9.092;2023-07-24T02:11:51;98268.00;;;23.36;56.19
15604;BME280;7902;49.042;9.092;2023-07-24T02:14:17;98266.34;;;23.48;56.00
15604;BME280;7902;49.042;9.092;2023-07-24T02:16:43;98270.69;;;23.49;55.79
15604;BME280;7902;49.042;9.092;2023-07-24T02:19:09;98262.84;;;23.41;56.03
15604;BME280;7902;49.042;9.092;2023-07-24T02:21:35;98261.44;;;23.38;56.23
15604;BME280;7902;49.042;9.092;2023-07-24T02:24:01;98257.06;;;23.44;55.70
15604;BME280;7902;49.042;9.092;2023-07-24T02:26:27;98259.34;;;23.40;55.99
15604;BME280;7902;49.042;9.092;2023-07-24T02:28:53;98259.75;;;23.44;55.89
15604;BME280;7902;49.042;9.092;2023-07-24T02:31:19;98254.81;;;23.41;55.99
15604;BME280;7902;49.042;9.092;2023-07-24T02:33:45;98241.84;;;23.38;55.95
15604;BME280;7902;49.042;9.092;2023-07-24T02:36:11;98240.81;;;23.39;56.20
15604;BME280;7902;49.042;9.092;2023-07-24T02:38:37;98238.53;;;23.42;56.15
15604;BME280;7902;49.042;9.092;2023-07-24T02:41:03;98249.44;;;23.41;56.33
15604;BME280;7902;49.042;9.092;2023-07-24T02:43:29;98242.03;;;23.43;55.61
15604;BME280;7902;49.042;9.092;2023-07-24T02:45:55;98235.88;;;23.36;56.37
15604;BME280;7902;49.042;9.092;2023-07-24T02:48:25;98233.22;;;23.29;56.26
15604;BME280;7902;49.042;9.092;2023-07-24T02:50:51;98225.19;;;23.29;56.58
15604;BME280;7902;49.042;9.092;2023-07-24T02:53:17;98212.41;;;23.31;56.80
15604;BME280;7902;49.042;9.092;2023-07-24T02:55:43;98208.31;;;23.29;56.60
15604;BME280;7902;49.042;9.092;2023-07-24T02:58:11;98214.31;;;23.17;56.74
15604;BME280;7902;49.042;9.092;2023-07-24T03:00:38;98238.84;;;23.14;57.01
15604;BME280;7902;49.042;9.092;2023-07-24T03:03:03;98209.13;;;23.29;56.43
15604;BME280;7902;49.042;9.092;2023-07-24T03:05:30;98211.22;;;23.21;56.64
15604;BME280;7902;49.042;9.092;2023-07-24T03:07:56;98220.50;;;23.18;56.67
15604;BME280;7902;49.042;9.092;2023-07-24T03:10:23;98226.75;;;23.05;57.33
15604;BME280;7902;49.042;9.092;2023-07-24T03:12:49;98216.03;;;23.05;56.82
15604;BME280;7902;49.042;9.092;2023-07-24T03:15:15;98221.19;;;23.07;57.27
15604;BME280;7902;49.042;9.092;2023-07-24T03:17:40;98210.44;;;23.13;57.08
15604;BME280;7902;49.042;9.092;2023-07-24T03:20:17;98212.91;;;23.15;56.75
15604;BME280;7902;49.042;9.092;2023-07-24T03:22:44;98210.03;;;23.16;56.77
15604;BME280;7902;49.042;9.092;2023-07-24T03:25:10;98212.50;;;23.11;57.18
15604;BME280;7902;49.042;9.092;2023-07-24T03:27:36;98210.44;;;23.13;57.16
15604;BME280;7902;49.042;9.092;2023-07-24T03:30:03;98204.03;;;23.14;57.04
15604;BME280;7902;49.042;9.092;2023-07-24T03:32:29;98201.78;;;23.11;56.85
15604;BME280;7902;49.042;9.092;2023-07-24T03:34:55;98203.00;;;23.15;56.92
15604;BME280;7902;49.042;9.092;2023-07-24T03:37:21;98200.16;;;23.10;57.09
15604;BME280;7902;49.042;9.092;2023-07-24T03:39:46;98204.09;;;23.01;57.63
15604;BME280;7902;49.042;9.092;2023-07-24T03:42:26;98198.50;;;23.03;57.16
15604;BME280;7902;49.042;9.092;2023-07-24T03:44:54;98196.66;;;23.03;56.65
15604;BME280;7902;49.042;9.092;2023-07-24T03:47:20;98191.50;;;23.08;56.91
15604;BME280;7902;49.042;9.092;2023-07-24T03:49:46;98194.16;;;23.08;56.33
15604;BME280;7902;49.042;9.092;2023-07-24T03:52:12;98201.38;;;23.08;56.80
15604;BME280;7902;49.042;9.092;2023-07-24T03:54:37;98196.03;;;23.08;57.07
15604;BME280;7902;49.042;9.092;2023-07-24T03:57:04;98204.88;;;23.08;56.88
15604;BME280;7902;49.042;9.092;2023-07-24T03:59:30;98192.31;;;23.15;56.49
15604;BME280;7902;49.042;9.092;2023-07-24T04:01:57;98188.59;;;23.16;56.54
15604;BME280;7902;49.042;9.092;2023-07-24T04:04:23;98194.75;;;23.17;55.97
15604;BME280;7902;49.042;9.092;2023-07-24T04:06:49;98202.59;;;23.12;56.35
15604;BME280;7902;49.042;9.092;2023-07-24T04:09:15;98207.56;;;23.08;56.61
15604;BME280;7902;49.042;9.092;2023-07-24T04:11:42;98207.16;;;23.11;56.43
15604;BME280;7902;49.042;9.092;2023-07-24T04:14:08;98212.31;;;23.06;56.45
15604;BME280;7902;49.042;9.092;2023-07-24T04:16:34;98196.00;;;23.14;56.27
15604;BME280;7902;49.042;9.092;2023-07-24T04:19:00;98202.50;;;23.32;55.69
15604;BME280;7902;49.042;9.092;2023-07-24T04:21:26;98209.69;;;23.38;55.33
15604;BME280;7902;49.042;9.092;2023-07-24T04:23:52;98183.88;;;23.50;54.99
15604;BME280;7902;49.042;9.092;2023-07-24T04:26:18;98185.38;;;23.39;55.24
15604;BME280;7902;49.042;9.092;2023-07-24T04:28:44;98187.00;;;23.40;55.20
15604;BME280;7902;49.042;9.092;2023-07-24T04:31:10;98184.38;;;23.34;55.30
15604;BME280;7902;49.042;9.092;2023-07-24T04:33:35;98185.38;;;23.39;55.34
15604;BME280;7902;49.042;9.092;2023-07-24T04:36:01;98174.88;;;23.31;55.68
15604;BME280;7902;49.042;9.092;2023-07-24T04:38:27;98174.44;;;23.41;55.41
15604;BME280;7902;49.042;9.092;2023-07-24T04:40:53;98178.63;;;23.30;56.18
15604;BME280;7902;49.042;9.092;2023-07-24T04:43:19;98162.75;;;23.29;55.99
15604;BME280;7902;49.042;9.092;2023-07-24T04:45:45;98155.38;;;23.24;56.53
15604;BME280;7902;49.042;9.092;2023-07-24T04:48:11;98152.25;;;23.27;56.68
15604;BME280;7902;49.042;9.092;2023-07-24T04:50:37;98146.88;;;23.34;55.76
15604;BME280;7902;49.042;9.092;2023-07-24T04:53:03;98146.88;;;23.34;56.33
15604;BME280;7902;49.042;9.092;2023-07-24T04:55:28;98139.88;;;23.33;55.94
15604;BME280;7902;49.042;9.092;2023-07-24T04:57:54;98137.63;;;23.30;56.10
15604;BME280;7902;49.042;9.092;2023-07-24T05:00:20;98137.38;;;23.38;55.79
15604;BME280;7902;49.042;9.092;2023-07-24T05:02:46;98136.81;;;23.29;56.61
15604;BME280;7902;49.042;9.092;2023-07-24T05:05:12;98134.06;;;23.36;56.18
15604;BME280;7902;49.042;9.092;2023-07-24T05:07:38;98143.94;;;23.42;55.81
15604;BME280;7902;49.042;9.092;2023-07-24T05:10:04;98138.63;;;23.35;56.04
15604;BME280;7902;49.042;9.092;2023-07-24T05:12:30;98134.25;;;23.47;55.57
15604;BME280;7902;49.042;9.092;2023-07-24T05:14:56;98127.38;;;23.58;55.37
15604;BME280;7902;49.042;9.092;2023-07-24T05:17:22;98126.75;;;23.56;55.33
15604;BME280;7902;49.042;9.092;2023-07-24T05:19:48;98125.28;;;23.60;55.25
15604;BME280;7902;49.042;9.092;2023-07-24T05:22:14;98136.88;;;23.54;55.74
15604;BME280;7902;49.042;9.092;2023-07-24T05:24:40;98134.63;;;23.51;55.72
15604;BME280;7902;49.042;9.092;2023-07-24T05:27:06;98136.44;;;23.57;55.60
15604;BME280;7902;49.042;9.092;2023-07-24T05:29:32;98127.38;;;23.58;55.46
15604;BME280;7902;49.042;9.092;2023-07-24T05:31:58;98142.56;;;23.64;55.41
15604;BME280;7902;49.042;9.092;2023-07-24T05:34:25;98148.25;;;23.74;54.47
15604;BME280;7902;49.042;9.092;2023-07-24T05:36:51;98152.47;;;23.88;53.67
15604;BME280;7902;49.042;9.092;2023-07-24T05:39:17;98156.81;;;23.89;54.75
15604;BME280;7902;49.042;9.092;2023-07-24T05:41:43;98162.78;;;23.91;53.92
15604;BME280;7902;49.042;9.092;2023-07-24T05:44:10;98160.84;;;23.98;53.61
15604;BME280;7902;49.042;9.092;2023-07-24T05:46:36;98158.34;;;24.03;53.57
15604;BME280;7902;49.042;9.092;2023-07-24T05:49:02;98165.19;;;23.99;54.13
15604;BME280;7902;49.042;9.092;2023-07-24T05:51:28;98156.75;;;23.96;53.91
15604;BME280;7902;49.042;9.092;2023-07-24T05:53:53;98155.69;;;23.97;53.79
15604;BME280;7902;49.042;9.092;2023-07-24T05:56:19;98159.38;;;24.02;54.26
15604;BME280;7902;49.042;9.092;2023-07-24T05:58:45;98158.50;;;24.09;53.51
15604;BME280;7902;49.042;9.092;2023-07-24T06:01:11;98160.72;;;24.12;53.91
15604;BME280;7902;49.042;9.092;2023-07-24T06:03:37;98168.19;;;24.10;53.91
15604;BME280;7902;49.042;9.092;2023-07-24T06:06:04;98164.22;;;24.12;53.98
15604;BME280;7902;49.042;9.092;2023-07-24T06:08:30;98170.81;;;23.91;54.80
15604;BME280;7902;49.042;9.092;2023-07-24T06:10:56;98171.00;;;23.96;54.62
15604;BME280;7902;49.042;9.092;2023-07-24T06:13:22;98173.56;;;23.85;55.14
15604;BME280;7902;49.042;9.092;2023-07-24T06:15:48;98179.03;;;23.96;54.37
15604;BME280;7902;49.042;9.092;2023-07-24T06:18:14;98171.47;;;23.87;55.34
15604;BME280;7902;49.042;9.092;2023-07-24T06:20:40;98171.13;;;24.01;54.53
15604;BME280;7902;49.042;9.092;2023-07-24T06:23:06;98179.84;;;23.97;55.03
15604;BME280;7902;49.042;9.092;2023-07-24T06:25:32;98170.81;;;23.91;55.01
15604;BME280;7902;49.042;9.092;2023-07-24T06:27:58;98158.44;;;23.90;55.27
15604;BME280;7902;49.042;9.092;2023-07-24T06:30:24;98155.56;;;23.92;55.08
15604;BME280;7902;49.042;9.092;2023-07-24T06:32:50;98147.94;;;23.89;54.74
15604;BME280;7902;49.042;9.092;2023-07-24T06:35:16;98151.06;;;23.86;55.21
15604;BME280;7902;49.042;9.092;2023-07-24T06:37:42;98156.63;;;23.84;55.45
15604;BME280;7902;49.042;9.092;2023-07-24T06:40:08;98158.06;;;23.87;55.46
15604;BME280;7902;49.042;9.092;2023-07-24T06:42:34;98161.31;;;23.95;55.34
15604;BME280;7902;49.042;9.092;2023-07-24T06:45:00;98162.06;;;24.02;55.06
15604;BME280;7902;49.042;9.092;2023-07-24T06:47:26;98157.72;;;24.01;55.22
15604;BME280;7902;49.042;9.092;2023-07-24T06:49:52;98160.72;;;24.12;54.88
15604;BME280;7902;49.042;9.092;2023-07-24T06:52:18;98152.00;;;24.23;54.32
15604;BME280;7902;49.042;9.092;2023-07-24T06:54:44;98152.38;;;24.26;53.84
15604;BME280;7902;49.042;9.092;2023-07-24T06:57:10;98148.44;;;24.29;53.66
15604;BME280;7902;49.042;9.092;2023-07-24T06:59:36;98139.19;;;24.25;54.00
15604;BME280;7902;49.042;9.092;2023-07-24T07:02:02;98149.69;;;24.26;54.08
15604;BME280;7902;49.042;9.092;2023-07-24T07:04:27;98136.38;;;24.20;55.44
15604;BME280;7902;49.042;9.092;2023-07-24T07:06:53;98138.03;;;24.39;54.65
15604;BME280;7902;49.042;9.092;2023-07-24T07:09:19;98144.47;;;24.31;54.64
15604;BME280;7902;49.042;9.092;2023-07-24T07:11:45;98142.78;;;24.37;55.07
15604;BME280;7902;49.042;9.092;2023-07-24T07:14:11;98148.50;;;24.40;54.30
15604;BME280;7902;49.042;9.092;2023-07-24T07:16:38;98155.53;;;24.41;54.32
15604;BME280;7902;49.042;9.092;2023-07-24T07:19:04;98150.06;;;24.30;53.97
15604;BME280;7902;49.042;9.092;2023-07-24T07:21:30;98152.94;;;24.53;53.64
15604;BME280;7902;49.042;9.092;2023-07-24T07:23:56;98174.09;;;24.43;54.07
15604;BME280;7902;49.042;9.092;2023-07-24T07:26:21;98170.81;;;24.41;54.94
15604;BME280;7902;49.042;9.092;2023-07-24T07:28:48;98167.31;;;24.40;54.29
15604;BME280;7902;49.042;9.092;2023-07-24T07:31:14;98163.13;;;24.44;53.85
15604;BME280;7902;49.042;9.092;2023-07-24T07:33:40;98166.47;;;24.58;53.72
15604;BME280;7902;49.042;9.092;2023-07-24T07:36:05;98153.97;;;24.52;54.07
15604;BME280;7902;49.042;9.092;2023-07-24T07:38:32;98158.88;;;24.55;53.91
15604;BME280;7902;49.042;9.092;2023-07-24T07:40:58;98172.63;;;24.65;53.87
15604;BME280;7902;49.042;9.092;2023-07-24T07:43:24;98173.06;;;24.62;54.25
15604;BME280;7902;49.042;9.092;2023-07-24T07:45:50;98172.63;;;24.47;52.99
15604;BME280;7902;49.042;9.092;2023-07-24T07:48:15;98175.97;;;24.61;52.78
15604;BME280;7902;49.042;9.092;2023-07-24T07:50:41;98179.03;;;24.64;54.68
15604;BME280;7902;49.042;9.092;2023-07-24T07:53:07;98195.13;;;24.64;53.65
15604;BME280;7902;49.042;9.092;2023-07-24T07:55:33;98208.41;;;24.59;54.87
15604;BME280;7902;49.042;9.092;2023-07-24T07:57:59;98220.47;;;24.50;54.36
15604;BME280;7902;49.042;9.092;2023-07-24T08:00:25;98231.97;;;24.57;54.23
15604;BME280;7902;49.042;9.092;2023-07-24T08:02:51;98269.50;;;24.39;54.94
15604;BME280;7902;49.042;9.092;2023-07-24T08:05:17;98236.56;;;24.50;53.91
15604;BME280;7902;49.042;9.092;2023-07-24T08:07:43;98225.63;;;24.52;56.23
15604;BME280;7902;49.042;9.092;2023-07-24T08:10:09;98204.16;;;24.52;56.91
15604;BME280;7902;49.042;9.092;2023-07-24T08:12:35;98205.19;;;24.51;55.64
15604;BME280;7902;49.042;9.092;2023-07-24T08:15:01;98225.25;;;24.48;57.97
15604;BME280;7902;49.042;9.092;2023-07-24T08:17:27;98239.63;;;24.54;57.43
15604;BME280;7902;49.042;9.092;2023-07-24T08:19:52;98251.31;;;24.41;57.97
15604;BME280;7902;49.042;9.092;2023-07-24T08:22:18;98241.72;;;24.52;57.72
15604;BME280;7902;49.042;9.092;2023-07-24T08:24:45;98232.22;;;24.49;57.54
15604;BME280;7902;49.042;9.092;2023-07-24T08:27:11;98223.53;;;24.54;55.64
15604;BME280;7902;49.042;9.092;2023-07-24T08:29:37;98214.81;;;24.58;56.35
15604;BME280;7902;49.042;9.092;2023-07-24T08:32:04;98196.63;;;24.60;57.33
15604;BME280;7902;49.042;9.092;2023-07-24T08:34:30;98182.16;;;24.61;56.82
15604;BME280;7902;49.042;9.092;2023-07-24T08:36:56;98183.00;;;24.62;57.52
15604;BME280;7902;49.042;9.092;2023-07-24T08:39:22;98181.19;;;24.56;57.67
15604;BME280;7902;49.042;9.092;2023-07-24T08:41:48;98176.19;;;24.59;59.10
15604;BME280;7902;49.042;9.092;2023-07-24T08:44:14;98173.13;;;24.56;57.45
15604;BME280;7902;49.042;9.092;2023-07-24T08:46:42;98164.88;;;24.57;58.51
15604;BME280;7902;49.042;9.092;2023-07-24T08:49:12;98157.91;;;24.49;59.94
15604;BME280;7902;49.042;9.092;2023-07-24T08:51:40;98152.03;;;24.59;60.19
15604;BME280;7902;49.042;9.092;2023-07-24T08:54:06;98152.78;;;24.66;59.40
15604;BME280;7902;49.042;9.092;2023-07-24T08:56:33;98150.78;;;24.62;59.79
15604;BME280;7902;49.042;9.092;2023-07-24T08:58:59;98146.50;;;24.54;60.65
15604;BME280;7902;49.042;9.092;2023-07-24T09:01:25;98140.41;;;24.65;60.66
15604;BME280;7902;49.042;9.092;2023-07-24T09:03:51;98151.59;;;24.62;59.66
15604;BME280;7902;49.042;9.092;2023-07-24T09:06:17;98159.19;;;24.65;57.72
15604;BME280;7902;49.042;9.092;2023-07-24T09:08:43;98153.69;;;24.60;60.63
15604;BME280;7902;49.042;9.092;2023-07-24T09:11:12;98158.44;;;24.58;59.98
15604;BME280;7902;49.042;9.092;2023-07-24T09:13:41;98171.84;;;24.58;60.24
15604;BME280;7902;49.042;9.092;2023-07-24T09:16:07;98176.34;;;24.64;58.00
15604;BME280;7902;49.042;9.092;2023-07-24T09:18:40;98179.25;;;24.63;60.24
15604;BME280;7902;49.042;9.092;2023-07-24T09:21:07;98179.91;;;24.58;59.29
15604;BME280;7902;49.042;9.092;2023-07-24T09:23:33;98175.88;;;24.67;58.68
15604;BME280;7902;49.042;9.092;2023-07-24T09:25:59;98172.47;;;24.60;56.81
15604;BME280;7902;49.042;9.092;2023-07-24T09:28:24;98162.19;;;24.57;58.42
15604;BME280;7902;49.042;9.092;2023-07-24T09:30:58;98159.34;;;24.70;60.12
15604;BME280;7902;49.042;9.092;2023-07-24T09:33:39;98159.13;;;24.72;59.66
15604;BME280;7902;49.042;9.092;2023-07-24T09:36:07;98156.66;;;24.70;59.97
15604;BME280;7902;49.042;9.092;2023-07-24T09:38:35;98165.91;;;24.74;61.12
15604;BME280;7902;49.042;9.092;2023-07-24T09:41:02;98162.53;;;24.79;60.56
15604;BME280;7902;49.042;9.092;2023-07-24T09:43:29;98167.03;;;24.85;60.90
15604;BME280;7902;49.042;9.092;2023-07-24T09:45:56;98165.94;;;24.92;60.38
15604;BME280;7902;49.042;9.092;2023-07-24T09:48:25;98158.38;;;25.01;60.99
15604;BME280;7902;49.042;9.092;2023-07-24T09:50:56;98158.44;;;25.13;59.76
15604;BME280;7902;49.042;9.092;2023-07-24T09:54:09;98149.56;;;25.12;59.35
15604;BME280;7902;49.042;9.092;2023-07-24T09:56:40;98160.25;;;25.01;58.44
15604;BME280;7902;49.042;9.092;2023-07-24T09:59:09;98165.72;;;25.24;58.11
15604;BME280;7902;49.042;9.092;2023-07-24T10:01:36;98169.19;;;25.13;58.13
15604;BME280;7902;49.042;9.092;2023-07-24T10:04:03;98172.22;;;25.16;58.50
15604;BME280;7902;49.042;9.092;2023-07-24T10:06:29;98176.22;;;25.14;56.86
15604;BME280;7902;49.042;9.092;2023-07-24T10:08:57;98173.09;;;24.99;56.55
15604;BME280;7902;49.042;9.092;2023-07-24T10:11:24;98178.06;;;25.13;58.40
15604;BME280;7902;49.042;9.092;2023-07-24T10:13:50;98171.25;;;25.11;57.69
15604;BME280;7902;49.042;9.092;2023-07-24T10:16:16;98180.00;;;25.06;57.95
15604;BME280;7902;49.042;9.092;2023-07-24T10:18:44;98186.31;;;25.00;57.07
15604;BME280;7902;49.042;9.092;2023-07-24T10:21:13;98181.59;;;25.14;57.69
15604;BME280;7902;49.042;9.092;2023-07-24T10:23:43;98193.00;;;25.09;58.47
15604;BME280;7902;49.042;9.092;2023-07-24T10:26:10;98188.88;;;25.07;57.65
15604;BME280;7902;49.042;9.092;2023-07-24T10:28:38;98184.56;;;25.06;58.58
15604;BME280;7902;49.042;9.092;2023-07-24T10:33:45;98184.66;;;24.99;59.63
15604;BME280;7902;49.042;9.092;2023-07-24T10:36:12;98181.88;;;25.06;58.54
15604;BME280;7902;49.042;9.092;2023-07-24T10:38:41;98188.44;;;25.10;58.56
15604;BME280;7902;49.042;9.092;2023-07-24T10:41:08;98191.28;;;24.97;58.28
15604;BME280;7902;49.042;9.092;2023-07-24T10:43:45;98191.88;;;25.17;59.71
15604;BME280;7902;49.042;9.092;2023-07-24T10:46:13;98185.47;;;25.00;58.87
15604;BME280;7902;49.042;9.092;2023-07-24T10:48:47;98184.50;;;25.12;59.71
15604;BME280;7902;49.042;9.092;2023-07-24T10:51:14;98183.50;;;25.07;61.11
15604;BME280;7902;49.042;9.092;2023-07-24T10:53:45;98189.50;;;25.09;60.42
15604;BME280;7902;49.042;9.092;2023-07-24T10:56:12;98181.56;;;24.96;58.77
15604;BME280;7902;49.042;9.092;2023-07-24T10:58:38;98192.03;;;25.04;60.94
15604;BME280;7902;49.042;9.092;2023-07-24T11:01:05;98172.06;;;25.00;60.41
15604;BME280;7902;49.042;9.092;2023-07-24T11:03:31;98170.09;;;25.07;60.27
15604;BME280;7902;49.042;9.092;2023-07-24T11:05:58;98173.81;;;25.06;60.22
15604;BME280;7902;49.042;9.092;2023-07-24T11:08:24;98178.66;;;25.15;60.87
15604;BME280;7902;49.042;9.092;2023-07-24T11:10:57;98176.50;;;25.06;60.07
15604;BME280;7902;49.042;9.092;2023-07-24T11:13:25;98169.63;;;25.10;60.09
15604;BME280;7902;49.042;9.092;2023-07-24T11:15:52;98158.53;;;25.06;59.10
15604;BME280;7902;49.042;9.092;2023-07-24T11:18:19;98151.59;;;24.99;60.20
15604;BME280;7902;49.042;9.092;2023-07-24T11:20:54;98145.63;;;24.97;60.46
15604;BME280;7902;49.042;9.092;2023-07-24T11:23:22;98144.03;;;25.07;58.98
15604;BME280;7902;49.042;9.092;2023-07-24T11:25:52;98131.28;;;25.03;59.88
15604;BME280;7902;49.042;9.092;2023-07-24T11:28:18;98121.06;;;25.11;61.64
15604;BME280;7902;49.042;9.092;2023-07-24T11:30:44;98098.97;;;25.09;60.94
15604;BME280;7902;49.042;9.092;2023-07-24T11:33:12;98085.03;;;25.01;60.46
15604;BME280;7902;49.042;9.092;2023-07-24T11:35:40;98065.53;;;24.94;58.85
15604;BME280;7902;49.042;9.092;2023-07-24T11:38:08;98061.47;;;25.03;60.70
15604;BME280;7902;49.042;9.092;2023-07-24T11:40:37;98064.84;;;25.10;60.18
15604;BME280;7902;49.042;9.092;2023-07-24T11:43:04;98057.88;;;25.20;60.82
15604;BME280;7902;49.042;9.092;2023-07-24T11:45:31;98083.22;;;25.13;60.79
15604;BME280;7902;49.042;9.092;2023-07-24T11:47:57;98094.09;;;25.18;60.26
15604;BME280;7902;49.042;9.092;2023-07-24T11:50:23;98081.94;;;25.15;61.23
15604;BME280;7902;49.042;9.092;2023-07-24T11:52:51;98089.13;;;25.33;59.57
15604;BME280;7902;49.042;9.092;2023-07-24T11:55:18;98101.97;;;25.31;59.36
15604;BME280;7902;49.042;9.092;2023-07-24T11:58:02;98112.25;;;25.34;61.44
15604;BME280;7902;49.042;9.092;2023-07-24T12:00:32;98121.81;;;25.30;61.47
15604;BME280;7902;49.042;9.092;2023-07-24T12:03:00;98121.09;;;25.23;60.21
15604;BME280;7902;49.042;9.092;2023-07-24T12:05:27;98127.34;;;25.35;59.95
15604;BME280;7902;49.042;9.092;2023-07-24T12:07:54;98130.47;;;25.32;57.70
15604;BME280;7902;49.042;9.092;2023-07-24T12:10:27;98134.47;;;25.41;59.01
15604;BME280;7902;49.042;9.092;2023-07-24T12:12:55;98132.28;;;25.50;58.33
15604;BME280;7902;49.042;9.092;2023-07-24T12:15:23;98144.19;;;25.42;59.68
15604;BME280;7902;49.042;9.092;2023-07-24T12:17:49;98138.47;;;25.50;59.60
15604;BME280;7902;49.042;9.092;2023-07-24T12:20:15;98134.56;;;25.34;60.31
15604;BME280;7902;49.042;9.092;2023-07-24T12:22:41;98139.91;;;25.23;60.25
15604;BME280;7902;49.042;9.092;2023-07-24T12:25:07;98127.81;;;25.32;59.98
15604;BME280;7902;49.042;9.092;2023-07-24T12:27:33;98128.28;;;25.41;59.65
15604;BME280;7902;49.042;9.092;2023-07-24T12:29:59;98119.13;;;25.30;60.99
15604;BME280;7902;49.042;9.092;2023-07-24T12:32:26;98124.63;;;25.35;60.02
15604;BME280;7902;49.042;9.092;2023-07-24T12:34:53;98125.81;;;25.39;60.35
15604;BME280;7902;49.042;9.092;2023-07-24T12:37:19;98122.63;;;25.19;60.39
15604;BME280;7902;49.042;9.092;2023-07-24T12:39:47;98120.50;;;25.21;60.82
15604;BME280;7902;49.042;9.092;2023-07-24T12:42:13;98114.81;;;25.29;60.35
15604;BME280;7902;49.042;9.092;2023-07-24T12:44:41;98100.78;;;25.27;60.61
15604;BME280;7902;49.042;9.092;2023-07-24T12:47:07;98107.44;;;25.24;60.24
15604;BME280;7902;49.042;9.092;2023-07-24T12:49:33;98105.91;;;25.28;59.75
15604;BME280;7902;49.042;9.092;2023-07-24T12:51:59;98115.88;;;25.28;60.47
15604;BME280;7902;49.042;9.092;2023-07-24T12:54:25;98110.38;;;25.23;60.24
15604;BME280;7902;49.042;9.092;2023-07-24T12:56:51;98095.75;;;25.19;59.58
15604;BME280;7902;49.042;9.092;2023-07-24T12:59:18;98087.31;;;25.15;60.51
15604;BME280;7902;49.042;9.092;2023-07-24T13:01:44;98085.69;;;25.14;61.25
15604;BME280;7902;49.042;9.092;2023-07-24T13:04:11;98076.69;;;25.09;60.99
15604;BME280;7902;49.042;9.092;2023-07-24T13:06:36;98059.63;;;25.15;61.55
15604;BME280;7902;49.042;9.092;2023-07-24T13:09:03;98058.00;;;25.14;61.76
15604;BME280;7902;49.042;9.092;2023-07-24T13:11:29;98052.50;;;25.20;60.32